Kimball, Minnesota
Current Conditions -  °F | °C
As of 10:13 PM on Wednesday 26 Nov 2014 (Local Time) from KLJF Reporting Station
Clear Clear  
Wind Chill: -23°   Ceiling: Unl
Heat Index: -14°   Visibility: 10mi
Dew Point: -18°   Wind: 12mph
Humidity: 72%   Direction: 320°NW
Pressure: 30.4"   Gusts: NA
Location:  45.31°N, 94.3°W
Report Text: KLJF 270413Z AUTO 32010KT 10SM CLR M14/M18 A3040 RMK AO2
Loading
Personal Weather Stations






























Interactive Weather Map New forecast layout! Learn more

10-Day Weather Forecast

Advertisements
Track Severe Weather on mobile